Airport ICAO


18:50 UTC

9°C

Scattered clouds


An affordable passengers' Moving Map for your aircraft. Made for the iPad and the iPhone
More information here

EGLC City


London UNITED KINGDOM   VFR


METAR EGLC 231820Z AUTO 10011KT 9999 SCT046 09/03 Q1032 0h30min





NOTAMS

OPEN

PILOT REPORTS

OPEN